Airfield :
LOGIN :

Register | Disclaimer

   EN    FR    IT 

 










Legend :    VFR   Marginal VFR   IFR   Intensive IFR   Very Intensive IFR
Visi :
Ceiling :
>= 8 km
>= 3000ft
5 to 8 km
1000 to 3000 ft
1500m to 5 km
500 to 1000 ft
800 to 1500m
200 to 500 ft
< 800m
< 200 ft
Symbols :   Thunderstorms  Fog  Heavy snow  Heavy precipitations  Wind > 20 kt
SIGMETs :     Misc.  Thunderstorms  Icing  Turbulence  Mountain Waves  Volcanic Ashes






- Airport Elevation : 194 ft


EBCV - Chièvres

CURRENT METAR :
  • 271825Z AUTO 18013KT //// OVC015/// 08/06 Q0998 WHT

EXPIRED METARs :
  • 271755Z AUTO 18013KT //// FEW016/// SCT019/// OVC046/// 08/06 Q0999 WHT
  • 271725Z AUTO 19012KT //// BKN015/// OVC040/// 09/07 Q1000 WHT
  • 271719Z AUTO 19012KT //// BKN015/// OVC039/// 09/07 Q1000 WHT
  • 271655Z AUTO 19010KT //// OVC014/// 09/07 Q1001 GRN
  • 271643Z AUTO 18008KT //// BKN015/// 08/07 Q1001 WHT
  • 271625Z AUTO 20011KT //// BKN014/// 09/07 Q1001 GRN
  • 271555Z AUTO 19011KT //// BKN013/// 09/07 Q1002 GRN

TAF TAF EBCV
Valid from the 27 at 19:00 until the 28 at 07:00 UTC


271541Z 2719/2807 22013G25KT 9999 BKN020
PROB40
TEMPO 2800/2807 9999 SCT025
TEMPO 2719/2807 23017G30KT 5000 -SHRA -RA BKN012
PROB40
TEMPO 2802/2807 24020G40KT 3000 -TSRAGS BKN015CB BY EBWM



MET'MAP, your aeronautical weather chart ! - Copyright ORBIFLY December 2007 - Disclaimer

ORBIFLY MET'MAP TEAM :

Programming & Development : Alexandra Zaïnal
Concept & original design : Baudouin d'Aumeries
Assistance for programming : Marc-Olivier Méhu
Technical & hardware support : Manuel Goepfert

Contact : metmap@orbifly.com




SOURCES & CREDITS :

   NOAA